Aviation Digital Data Service (ADDS)

Output produced by METARs form (0759 UTC 04 May 2015)
found at http://www.aviationweather.gov/adds/metars/
 
KWWD 040755Z AUTO 00000KT 10SM CLR 11/07 A3016 RMK AO1